Time;durP1;ratioP1;P1;durP2;ratioP2;P2;SDS_P1;SDS_P2;PMS_P1;PMS_P2;Temp;Humidity;BMP_temperature;BMP_pressure;BME280_temperature;BME280_humidity;BME280_pressure;Samples;Min_cycle;Max_cycle;Signal;HPM_P1;HPM_P2
2021/10/20 00:01:20;;;;;;;54.63;39.67;;;180.00;2252.80;;;;;;5095939;28;20070;-82
2021/10/20 00:03:46;;;;;;;50.97;35.72;;;180.00;2252.80;;;;;;5094622;28;20024;-80
2021/10/20 00:06:12;;;;;;;44.50;34.10;;;179.80;2252.80;;;;;;5094287;28;20020;-79
2021/10/20 00:08:38;;;;;;;48.70;35.70;;;179.80;2252.80;;;;;;5094561;28;20080;-81
2021/10/20 00:11:04;;;;;;;53.40;38.17;;;179.60;2252.80;;;;;;5094636;28;20059;-81
2021/10/20 00:13:30;;;;;;;55.72;42.17;;;179.50;2252.80;;;;;;5095534;28;20067;-80
2021/10/20 00:15:56;;;;;;;64.30;47.03;;;179.50;2252.80;;;;;;5095666;28;20031;-77
2021/10/20 00:18:21;;;;;;;61.03;41.25;;;179.60;2252.80;;;;;;5094382;28;20032;-78
2021/10/20 00:20:48;;;;;;;62.40;42.42;;;179.60;2252.80;;;;;;5093956;28;20028;-78
2021/10/20 00:23:13;;;;;;;67.25;46.58;;;179.70;2252.80;;;;;;5093866;28;20032;-80
2021/10/20 00:25:41;;;;;;;61.17;42.95;;;179.80;2252.80;;;;;;5094153;28;20051;-80
2021/10/20 00:28:07;;;;;;;66.93;43.67;;;179.80;2252.80;;;;;;5093929;28;20025;-77
2021/10/20 00:30:33;;;;;;;59.35;41.10;;;179.80;2252.80;;;;;;5094151;28;20028;-80
2021/10/20 00:32:59;;;;;;;51.92;35.85;;;179.90;2252.80;;;;;;5094067;28;20032;-81
2021/10/20 00:35:25;;;;;;;52.05;34.75;;;179.90;2252.80;;;;;;5094437;28;20081;-81
2021/10/20 00:37:51;;;;;;;49.88;35.80;;;179.90;2252.80;;;;;;5094019;28;20055;-79
2021/10/20 00:40:17;;;;;;;60.90;40.97;;;180.00;2252.80;;;;;;5093665;28;20379;-78
2021/10/20 00:42:44;;;;;;;58.50;39.97;;;179.90;2252.80;;;;;;5095076;28;20028;-79
2021/10/20 00:45:10;;;;;;;47.97;36.60;;;179.90;2252.80;;;;;;5093867;28;20527;-78
2021/10/20 00:47:37;;;;;;;47.70;34.55;;;179.90;2252.80;;;;;;5093678;28;20058;-81
2021/10/20 00:50:05;;;;;;;59.72;41.80;;;179.90;2252.80;;;;;;5093477;28;20028;-80
2021/10/20 00:52:31;;;;;;;66.03;44.60;;;179.80;2252.80;;;;;;5093739;28;20031;-76
2021/10/20 00:54:58;;;;;;;58.60;40.42;;;179.80;2252.80;;;;;;5094660;28;20080;-78
2021/10/20 00:57:26;;;;;;;58.65;43.88;;;179.60;2252.80;;;;;;5093544;28;20024;-78
2021/10/20 00:59:53;;;;;;;75.85;52.40;;;180.00;2252.80;;;;;;5093669;28;20032;-78
2021/10/20 01:02:20;;;;;;;62.60;44.03;;;179.90;2252.80;;;;;;5093070;28;20464;-79
2021/10/20 01:04:48;;;;;;;60.42;43.03;;;179.30;2252.80;;;;;;5093425;28;20028;-80
2021/10/20 01:07:14;;;;;;;63.38;43.95;;;179.20;2252.80;;;;;;5093439;28;20446;-78
2021/10/20 01:09:40;;;;;;;62.15;43.50;;;154.50;2252.80;;;;;;5094330;28;20024;-79
2021/10/20 01:12:06;;;;;;;54.47;36.67;;;154.50;2252.80;;;;;;5093434;28;20032;-78
2021/10/20 01:14:32;;;;;;;54.40;36.22;;;154.50;2252.80;;;;;;5093286;28;20063;-78
2021/10/20 01:16:59;;;;;;;52.30;37.00;;;154.50;2252.80;;;;;;5093075;28;20400;-80
2021/10/20 01:19:25;;;;;;;55.03;36.55;;;179.30;2252.80;;;;;;5093337;28;20027;-82
2021/10/20 01:21:52;;;;;;;44.90;33.00;;;179.30;2252.80;;;;;;5093115;28;20028;-80
2021/10/20 01:24:19;;;;;;;47.72;35.13;;;179.20;2252.80;;;;;;5093081;28;20028;-81
2021/10/20 01:26:49;;;;;;;44.45;30.65;;;179.20;2252.80;;;;;;5094665;28;20452;-80
2021/10/20 01:29:16;;;;;;;45.45;32.10;;;179.40;2252.80;;;;;;5092995;28;20028;-83
2021/10/20 01:31:54;;;;;;;57.85;37.17;;;179.40;2252.80;;;;;;5094631;28;20115;-79
2021/10/20 01:34:21;;;;;;;64.35;40.00;;;179.30;2252.80;;;;;;5092777;28;20472;-80
2021/10/20 01:36:49;;;;;;;49.05;34.72;;;179.30;2252.80;;;;;;5092717;28;20028;-79
2021/10/20 01:39:17;;;;;;;48.60;34.47;;;154.40;2252.80;;;;;;5094137;28;20046;-78
2021/10/20 01:41:42;;;;;;;49.67;32.22;;;154.30;2252.80;;;;;;5092932;28;20379;-80
2021/10/20 01:44:08;;;;;;;49.17;32.97;;;154.10;2252.80;;;;;;5092779;28;20028;-79
2021/10/20 01:46:34;;;;;;;44.20;32.75;;;154.00;2252.80;;;;;;5092248;28;20504;-79
2021/10/20 01:49:00;;;;;;;42.75;29.73;;;153.90;2252.80;;;;;;5092810;28;20069;-77
2021/10/20 01:51:27;;;;;;;44.55;30.75;;;154.00;2252.80;;;;;;5093520;28;20080;-78
2021/10/20 01:53:53;;;;;;;39.95;29.50;;;153.80;2252.80;;;;;;5094394;28;20169;-77
2021/10/20 01:56:19;;;;;;;36.97;25.90;;;154.30;2252.80;;;;;;5092560;28;20035;-80
2021/10/20 01:58:46;;;;;;;36.65;26.85;;;154.40;2252.80;;;;;;5092611;28;20028;-76
2021/10/20 02:01:12;;;;;;;40.65;27.65;;;153.70;2252.80;;;;;;5092784;28;20039;-79
2021/10/20 02:03:39;;;;;;;49.70;32.33;;;154.10;2252.80;;;;;;5092613;28;20028;-79
2021/10/20 02:06:09;;;;;;;48.85;33.33;;;153.90;2252.80;;;;;;5093322;28;20372;-79
2021/10/20 02:08:35;;;;;;;48.45;35.75;;;153.70;2252.80;;;;;;5093801;28;20028;-80
2021/10/20 02:11:00;;;;;;;48.47;35.10;;;153.60;2252.80;;;;;;5092633;28;20027;-77
2021/10/20 02:13:27;;;;;;;47.20;31.85;;;153.70;2252.80;;;;;;5092439;28;20032;-80
2021/10/20 02:15:53;;;;;;;46.85;33.55;;;153.70;2252.80;;;;;;5092494;28;20024;-77
2021/10/20 02:18:19;;;;;;;45.72;32.72;;;154.00;2252.80;;;;;;5093350;28;20137;-78
2021/10/20 02:20:45;;;;;;;55.17;35.28;;;154.20;2252.80;;;;;;5092327;28;20024;-78
2021/10/20 02:23:11;;;;;;;55.25;35.53;;;154.10;2252.80;;;;;;5092310;28;20036;-78
2021/10/20 02:25:37;;;;;;;52.35;32.42;;;154.10;2252.80;;;;;;5093517;28;20028;-80
2021/10/20 02:28:03;;;;;;;48.22;31.88;;;153.90;2252.80;;;;;;5092667;28;20024;-78
2021/10/20 02:30:30;;;;;;;58.22;36.95;;;153.80;2252.80;;;;;;5093725;28;20111;-77
2021/10/20 02:32:56;;;;;;;62.30;39.42;;;153.80;2252.80;;;;;;5093741;28;20087;-78
2021/10/20 02:35:22;;;;;;;56.28;35.13;;;128.50;2252.80;;;;;;5092271;28;20052;-79
2021/10/20 02:37:48;;;;;;;56.25;32.55;;;128.70;2252.80;;;;;;5092593;28;20034;-75
2021/10/20 02:40:14;;;;;;;52.88;33.60;;;128.70;2252.80;;;;;;5092025;28;20115;-80
2021/10/20 02:42:41;;;;;;;50.92;33.20;;;128.80;2252.80;;;;;;5092255;28;20024;-77
2021/10/20 02:45:14;;;;;;;49.28;33.08;;;128.90;2252.80;;;;;;5092297;28;20036;-75
2021/10/20 02:47:40;;;;;;;65.60;39.10;;;153.60;2252.80;;;;;;5093606;28;20020;-77
2021/10/20 02:50:07;;;;;;;56.13;35.53;;;128.90;2252.80;;;;;;5092168;28;20139;-79
2021/10/20 02:52:33;;;;;;;60.78;34.75;;;153.60;2252.80;;;;;;5092223;28;20035;-75
2021/10/20 02:54:58;;;;;;;54.95;33.80;;;153.60;2252.80;;;;;;5093174;28;20028;-76
2021/10/20 02:57:24;;;;;;;51.22;36.53;;;128.90;2252.80;;;;;;5092444;28;20385;-78
2021/10/20 02:59:52;;;;;;;50.45;33.45;;;128.80;2252.80;;;;;;5095964;28;20024;-77
2021/10/20 03:02:18;;;;;;;54.17;32.80;;;128.90;2252.80;;;;;;5096851;28;20024;-79
2021/10/20 03:04:46;;;;;;;60.55;36.50;;;128.90;2252.80;;;;;;5095909;28;20039;-75
2021/10/20 03:07:12;;;;;;;63.38;38.88;;;128.90;2252.80;;;;;;5095491;28;20031;-77
2021/10/20 03:09:38;;;;;;;49.05;31.10;;;128.90;2252.80;;;;;;5095749;28;20020;-77
2021/10/20 03:12:04;;;;;;;48.30;29.90;;;128.80;2252.80;;;;;;5095707;28;20028;-76
2021/10/20 03:14:29;;;;;;;49.17;33.17;;;153.60;2252.80;;;;;;5095343;28;20024;-79
2021/10/20 03:16:55;;;;;;;45.95;31.15;;;153.70;2252.80;;;;;;5095592;28;20028;-77
2021/10/20 03:19:21;;;;;;;50.45;33.50;;;128.90;2252.80;;;;;;5095585;28;20032;-78
2021/10/20 03:21:47;;;;;;;58.65;40.35;;;128.80;2252.80;;;;;;5096276;28;20051;-78
2021/10/20 03:24:13;;;;;;;51.53;34.13;;;128.70;2252.80;;;;;;5096776;28;20024;-75
2021/10/20 03:26:39;;;;;;;68.88;40.40;;;128.70;2252.80;;;;;;5097120;28;20028;-76
2021/10/20 03:29:05;;;;;;;59.13;39.10;;;128.40;2252.80;;;;;;5096359;28;20074;-76
2021/10/20 03:31:31;;;;;;;60.35;38.15;;;128.50;2252.80;;;;;;5095331;28;20028;-77
2021/10/20 03:33:57;;;;;;;60.20;38.03;;;128.70;2252.80;;;;;;5095089;28;20028;-79
2021/10/20 03:36:23;;;;;;;65.88;43.92;;;128.60;2252.80;;;;;;5094936;28;20467;-77
2021/10/20 03:38:48;;;;;;;55.70;37.90;;;128.50;2252.80;;;;;;5095221;28;20479;-78
2021/10/20 03:41:14;;;;;;;65.55;38.95;;;128.50;2252.80;;;;;;5095183;28;20077;-78
2021/10/20 03:43:40;;;;;;;58.40;37.85;;;128.50;2252.80;;;;;;5094685;28;20067;-77
2021/10/20 03:46:06;;;;;;;58.97;36.05;;;128.50;2252.80;;;;;;5095272;28;20031;-79
2021/10/20 03:48:32;;;;;;;70.20;42.35;;;128.60;2252.80;;;;;;5095080;28;20027;-79
2021/10/20 03:50:58;;;;;;;63.03;39.00;;;128.20;2252.80;;;;;;5096015;28;20028;-77
2021/10/20 03:53:24;;;;;;;57.13;36.90;;;128.70;2252.80;;;;;;5096233;28;20384;-76
2021/10/20 03:55:50;;;;;;;53.00;32.40;;;128.60;2252.80;;;;;;5094913;28;20024;-79
2021/10/20 03:58:17;;;;;;;45.65;30.10;;;128.50;2252.80;;;;;;5094581;28;20024;-75
2021/10/20 04:00:44;;;;;;;46.97;30.67;;;128.60;2252.80;;;;;;5094714;28;20121;-78
2021/10/20 04:03:10;;;;;;;52.10;32.65;;;128.70;2252.80;;;;;;5095554;28;20063;-78
2021/10/20 04:05:35;;;;;;;59.15;35.60;;;128.70;2252.80;;;;;;5094652;28;20553;-80
2021/10/20 04:08:01;;;;;;;64.68;41.90;;;128.50;2252.80;;;;;;5094731;28;20502;-76
2021/10/20 04:10:27;;;;;;;62.53;40.53;;;128.40;2252.80;;;;;;5099339;28;20028;-76
2021/10/20 04:12:54;;;;;;;73.78;47.85;;;128.40;2252.80;;;;;;5100767;28;20035;-78
2021/10/20 04:15:23;;;;;;;63.47;47.78;;;128.10;2252.80;;;;;;5094477;28;20034;-77
2021/10/20 04:17:49;;;;;;;67.72;52.92;;;128.20;2252.80;;;;;;5094519;28;20085;-79
2021/10/20 04:20:16;;;;;;;63.00;50.13;;;128.30;2252.80;;;;;;5094507;28;20475;-79
2021/10/20 04:22:43;;;;;;;73.90;44.72;;;128.40;2252.80;;;;;;5095494;28;20028;-77
2021/10/20 04:25:10;;;;;;;75.22;43.67;;;128.30;2252.80;;;;;;5094070;28;20028;-78
2021/10/20 04:27:37;;;;;;;77.32;47.17;;;128.30;2252.80;;;;;;5094319;28;20024;-80
2021/10/20 04:30:07;;;;;;;66.00;43.60;;;128.30;2252.80;;;;;;5095259;28;20169;-78
2021/10/20 04:32:33;;;;;;;66.55;42.35;;;128.20;2252.80;;;;;;5094015;28;20080;-78
2021/10/20 04:35:02;;;;;;;67.43;43.67;;;128.00;2252.80;;;;;;5093904;28;20403;-79
2021/10/20 04:37:28;;;;;;;57.30;38.03;;;103.20;2227.20;;;;;;5095437;28;20095;-77
2021/10/20 04:39:57;;;;;;;49.00;31.92;;;103.00;2227.20;;;;;;5093789;28;20024;-78
2021/10/20 04:42:32;;;;;;;51.15;33.72;;;103.10;2227.20;;;;;;5093945;28;20070;-78
2021/10/20 04:44:59;;;;;;;50.60;33.53;;;103.20;2227.20;;;;;;5094030;28;20032;-75
2021/10/20 04:47:26;;;;;;;54.65;32.92;;;103.10;2227.20;;;;;;5095071;28;20032;-80
2021/10/20 04:49:52;;;;;;;56.15;36.42;;;103.30;2227.20;;;;;;5093897;28;20028;-79
2021/10/20 04:52:22;;;;;;;64.15;39.65;;;103.10;2227.20;;;;;;5093677;28;20035;-79
2021/10/20 04:54:48;;;;;;;61.72;34.70;;;103.10;2227.20;;;;;;5093799;28;20028;-76
2021/10/20 04:57:14;;;;;;;59.88;37.90;;;103.30;2227.20;;;;;;5093770;28;20028;-80
2021/10/20 04:59:40;;;;;;;62.80;40.53;;;103.30;2227.20;;;;;;5094490;28;20046;-76
2021/10/20 05:02:06;;;;;;;71.57;43.28;;;128.00;2252.80;;;;;;5095230;28;20032;-81
2021/10/20 05:04:31;;;;;;;57.75;38.28;;;128.10;2252.80;;;;;;5093561;28;20518;-79
2021/10/20 05:06:57;;;;;;;63.63;36.80;;;128.20;2252.80;;;;;;5093361;28;20428;-78
2021/10/20 05:09:24;;;;;;;59.35;36.08;;;128.20;2252.80;;;;;;5093684;28;20024;-77
2021/10/20 05:11:50;;;;;;;62.45;42.15;;;128.00;2252.80;;;;;;5093388;28;20031;-79
2021/10/20 05:14:16;;;;;;;54.30;36.10;;;128.10;2252.80;;;;;;5094386;28;20024;-79
2021/10/20 05:16:42;;;;;;;55.42;35.25;;;128.20;2252.80;;;;;;5093322;28;20426;-78
2021/10/20 05:19:08;;;;;;;54.63;36.97;;;128.10;2252.80;;;;;;5093409;28;20388;-80
2021/10/20 05:21:34;;;;;;;66.38;44.58;;;128.10;2252.80;;;;;;5093078;28;20035;-80
2021/10/20 05:24:00;;;;;;;50.90;34.92;;;103.30;2227.20;;;;;;5093466;28;20028;-79
2021/10/20 05:26:26;;;;;;;50.72;33.95;;;128.00;2252.80;;;;;;5093466;28;20382;-77
2021/10/20 05:28:51;;;;;;;53.42;33.85;;;103.30;2227.20;;;;;;5093109;28;20123;-78
2021/10/20 05:31:17;;;;;;;54.15;31.00;;;103.30;2227.20;;;;;;5093188;28;20024;-80
2021/10/20 05:33:43;;;;;;;47.58;30.60;;;103.30;2227.20;;;;;;5093356;28;20032;-80
2021/10/20 05:36:09;;;;;;;55.28;36.10;;;128.00;2252.80;;;;;;5093025;28;20392;-78
2021/10/20 05:38:36;;;;;;;57.92;37.03;;;103.30;2227.20;;;;;;5093254;28;20024;-77
2021/10/20 05:41:02;;;;;;;68.60;38.53;;;103.30;2227.20;;;;;;5092858;28;20467;-78
2021/10/20 05:43:28;;;;;;;64.60;37.90;;;128.00;2252.80;;;;;;5094166;28;20028;-77
2021/10/20 05:45:54;;;;;;;76.03;41.25;;;128.00;2252.80;;;;;;5094044;28;20085;-78
2021/10/20 05:48:23;;;;;;;70.15;43.08;;;128.10;2252.80;;;;;;5092695;28;20035;-80
2021/10/20 05:50:53;;;;;;;79.15;45.55;;;128.10;2252.80;;;;;;5092868;28;20028;-81
2021/10/20 05:53:19;;;;;;;85.53;47.00;;;103.30;2227.20;;;;;;5094482;28;20035;-76
2021/10/20 05:55:45;;;;;;;97.60;57.92;;;128.20;2252.80;;;;;;5092603;28;20348;-77
2021/10/20 05:58:12;;;;;;;78.60;48.22;;;128.00;2252.80;;;;;;5094166;28;20024;-79
2021/10/20 06:00:38;;;;;;;74.78;46.50;;;128.00;2252.80;;;;;;5092811;28;20024;-81
2021/10/20 06:03:05;;;;;;;82.18;45.45;;;128.00;2252.80;;;;;;5092499;28;20032;-78
2021/10/20 06:05:31;;;;;;;92.47;45.40;;;103.30;2227.20;;;;;;5092811;28;20028;-79
2021/10/20 06:07:57;;;;;;;78.63;43.63;;;103.30;2227.20;;;;;;5092746;28;20047;-78
2021/10/20 06:10:23;;;;;;;73.85;43.45;;;103.30;2227.20;;;;;;5092498;28;20059;-77
2021/10/20 06:12:50;;;;;;;68.00;40.25;;;103.30;2227.20;;;;;;5093902;28;20054;-77
2021/10/20 06:15:21;;;;;;;67.88;39.17;;;128.00;2252.80;;;;;;5094013;28;20028;-80
2021/10/20 06:17:47;;;;;;;62.25;40.25;;;128.10;2252.80;;;;;;5092406;28;20024;-79
2021/10/20 06:20:13;;;;;;;69.38;45.72;;;128.20;2252.80;;;;;;5092591;28;20027;-79
2021/10/20 06:22:41;;;;;;;79.55;46.15;;;128.40;2252.80;;;;;;5093951;28;20054;-79
2021/10/20 06:25:08;;;;;;;102.18;59.55;;;128.40;2252.80;;;;;;5092295;28;20053;-75
2021/10/20 06:27:34;;;;;;;97.57;55.65;;;128.30;2252.80;;;;;;5092604;28;20029;-81
2021/10/20 06:30:00;;;;;;;84.60;53.47;;;128.40;2252.80;;;;;;5092333;28;20023;-76
2021/10/20 06:32:26;;;;;;;72.03;46.25;;;128.30;2252.80;;;;;;5092739;28;20039;-78
2021/10/20 06:34:52;;;;;;;70.28;43.45;;;128.30;2252.80;;;;;;5096484;28;20052;-75
2021/10/20 06:37:17;;;;;;;80.07;49.85;;;128.30;2252.80;;;;;;5096328;28;20021;-77
2021/10/20 06:39:43;;;;;;;89.00;61.10;;;128.10;2252.80;;;;;;5096303;28;20055;-77
2021/10/20 06:42:09;;;;;;;78.20;54.28;;;128.40;2252.80;;;;;;5096250;28;20028;-79
2021/10/20 06:44:35;;;;;;;71.22;48.13;;;128.40;2252.80;;;;;;5096206;28;20028;-74
2021/10/20 06:47:00;;;;;;;73.03;50.75;;;128.30;2252.80;;;;;;5096477;28;20030;-75
2021/10/20 06:49:26;;;;;;;77.55;50.38;;;128.30;2252.80;;;;;;5096179;28;20020;-78
2021/10/20 06:51:52;;;;;;;70.70;48.70;;;128.40;2252.80;;;;;;5095932;28;20067;-78
2021/10/20 06:54:18;;;;;;;67.15;45.72;;;128.30;2252.80;;;;;;5096173;28;20028;-78
2021/10/20 06:56:52;;;;;;;73.65;50.35;;;128.30;2252.80;;;;;;5096149;28;20116;-78
2021/10/20 06:59:18;;;;;;;72.55;50.30;;;153.90;2252.80;;;;;;5095866;28;20110;-77
2021/10/20 07:01:44;;;;;;;72.38;49.67;;;128.60;2252.80;;;;;;5095820;28;20062;-76
2021/10/20 07:04:11;;;;;;;80.13;55.72;;;153.60;2252.80;;;;;;5097184;28;20051;-76
2021/10/20 07:06:38;;;;;;;85.93;62.10;;;128.90;2252.80;;;;;;5095664;28;20028;-74
2021/10/20 07:09:04;;;;;;;86.60;59.85;;;128.90;2252.80;;;;;;5095925;28;20035;-75
2021/10/20 07:11:31;;;;;;;76.40;51.63;;;128.80;2252.80;;;;;;5097101;28;20020;-77
2021/10/20 07:13:57;;;;;;;90.63;54.92;;;128.90;2252.80;;;;;;5095488;28;20024;-79
2021/10/20 07:16:22;;;;;;;82.85;59.70;;;153.80;2252.80;;;;;;5097240;28;20028;-78
2021/10/20 07:18:49;;;;;;;98.90;68.00;;;153.80;2252.80;;;;;;5097603;28;20024;-74
2021/10/20 07:21:15;;;;;;;88.13;61.08;;;153.90;2252.80;;;;;;5098905;28;20024;-76
2021/10/20 07:23:41;;;;;;;76.35;53.05;;;154.00;2252.80;;;;;;5095600;28;20486;-76
2021/10/20 07:26:07;;;;;;;78.95;56.15;;;154.10;2252.80;;;;;;5095490;28;20039;-76
2021/10/20 07:28:33;;;;;;;73.82;54.33;;;154.40;2252.80;;;;;;5095443;28;20020;-80
2021/10/20 07:30:58;;;;;;;63.20;46.00;;;154.50;2252.80;;;;;;5095459;28;20073;-79
2021/10/20 07:33:24;;;;;;;67.25;50.40;;;179.20;2252.80;;;;;;5095170;28;20028;-77
2021/10/20 07:35:50;;;;;;;58.08;40.92;;;179.30;2252.80;;;;;;5095054;28;20050;-79
2021/10/20 07:38:16;;;;;;;58.25;42.38;;;179.50;2252.80;;;;;;5095299;28;20118;-79
2021/10/20 07:40:42;;;;;;;45.08;35.67;;;179.60;2252.80;;;;;;5094951;28;20035;-77
2021/10/20 07:43:08;;;;;;;47.53;35.00;;;179.70;2252.80;;;;;;5096058;28;20066;-78
2021/10/20 07:45:34;;;;;;;47.58;37.38;;;179.70;2252.80;;;;;;5093982;28;20450;-78
2021/10/20 07:48:00;;;;;;;61.47;41.95;;;179.90;2252.80;;;;;;5094966;28;20020;-78
2021/10/20 07:50:25;;;;;;;63.22;45.20;;;180.00;2252.80;;;;;;5095095;28;20028;-78
2021/10/20 07:52:52;;;;;;;60.58;46.58;;;180.10;2252.80;;;;;;5094968;28;20493;-80
2021/10/20 07:55:22;;;;;;;56.85;44.63;;;204.80;2252.80;;;;;;5094788;28;20020;-77
2021/10/20 07:57:48;;;;;;;53.95;40.13;;;205.00;2252.80;;;;;;5095289;28;20157;-78
2021/10/20 08:00:15;;;;;;;46.72;36.20;;;205.00;2252.80;;;;;;5095189;28;20056;-78
2021/10/20 08:02:41;;;;;;;49.53;36.58;;;205.10;2252.80;;;;;;5094340;28;20036;-77
2021/10/20 08:05:11;;;;;;;47.35;37.88;;;205.10;2252.80;;;;;;5094803;28;20468;-78
2021/10/20 08:07:44;;;;;;;53.50;41.03;;;205.20;2252.80;;;;;;5095967;28;20024;-79
2021/10/20 08:10:11;;;;;;;44.80;35.05;;;205.40;2252.80;;;;;;5094464;28;20020;-80
2021/10/20 08:12:36;;;;;;;43.28;32.47;;;205.50;2252.80;;;;;;5094605;28;20039;-80
2021/10/20 08:15:03;;;;;;;39.28;29.35;;;205.60;2252.80;;;;;;5094137;28;20048;-80
2021/10/20 08:17:28;;;;;;;50.67;37.47;;;205.60;2252.80;;;;;;5094528;28;20032;-80
2021/10/20 08:19:54;;;;;;;40.60;32.58;;;205.70;2252.80;;;;;;5094394;28;20077;-80
2021/10/20 08:22:20;;;;;;;44.65;32.42;;;230.40;2252.80;;;;;;5095021;28;20089;-79
2021/10/20 08:24:46;;;;;;;43.42;32.72;;;230.40;2252.80;;;;;;5094430;28;20081;-76
2021/10/20 08:27:12;;;;;;;47.53;37.25;;;230.50;2252.80;;;;;;5095640;28;20160;-79
2021/10/20 08:29:38;;;;;;;60.83;44.35;;;230.50;2252.80;;;;;;5093951;28;20028;-78
2021/10/20 08:32:05;;;;;;;50.35;40.33;;;230.60;2252.80;;;;;;5094149;28;20024;-76
2021/10/20 08:34:31;;;;;;;55.42;44.65;;;230.70;2252.80;;;;;;5093728;28;20063;-74
2021/10/20 08:36:57;;;;;;;61.45;46.28;;;230.80;2252.80;;;;;;5093654;28;20019;-74
2021/10/20 08:39:23;;;;;;;52.33;39.08;;;231.00;2252.80;;;;;;5095180;28;20102;-74
2021/10/20 08:41:49;;;;;;;47.92;35.60;;;231.10;2252.80;;;;;;5093829;28;20110;-76
2021/10/20 08:44:16;;;;;;;49.38;37.10;;;231.30;2252.80;;;;;;5093476;28;20479;-74
2021/10/20 08:46:42;;;;;;;51.53;37.30;;;230.90;2252.80;;;;;;5093860;28;20365;-76
2021/10/20 08:49:10;;;;;;;46.30;35.97;;;256.00;2252.80;;;;;;5093685;28;20032;-76
2021/10/20 08:51:36;;;;;;;51.17;39.70;;;256.10;2252.80;;;;;;5093429;28;20028;-75
2021/10/20 08:54:02;;;;;;;57.78;39.47;;;256.30;2252.80;;;;;;5093621;28;20028;-75
2021/10/20 08:56:28;;;;;;;51.42;41.80;;;256.30;2252.80;;;;;;5093454;28;20436;-76
2021/10/20 08:58:54;;;;;;;60.08;42.05;;;256.40;2252.80;;;;;;5093262;28;20111;-76
2021/10/20 09:01:20;;;;;;;52.30;36.33;;;256.60;2252.80;;;;;;5093202;28;20034;-74
2021/10/20 09:03:46;;;;;;;45.03;36.10;;;256.80;2252.80;;;;;;5093452;28;20028;-78
2021/10/20 09:06:15;;;;;;;43.53;34.33;;;256.90;2252.80;;;;;;5093172;28;20035;-77
2021/10/20 09:08:45;;;;;;;41.25;33.22;;;256.90;2252.80;;;;;;5093512;28;20417;-74
2021/10/20 09:11:34;;;;;;;45.70;36.03;;;281.60;2278.40;;;;;;5093113;28;20035;-76
2021/10/20 09:14:05;;;;;;;41.92;31.88;;;281.80;2278.40;;;;;;5093369;28;20055;-76
2021/10/20 09:16:32;;;;;;;39.45;29.20;;;281.80;2278.40;;;;;;5093517;28;20020;-76
2021/10/20 09:18:59;;;;;;;37.17;28.05;;;282.00;2278.40;;;;;;5092897;28;20028;-77
2021/10/20 09:21:26;;;;;;;32.53;24.98;;;282.20;2278.40;;;;;;5093244;28;20035;-78
2021/10/20 09:23:53;;;;;;;32.03;24.88;;;307.30;2304.00;;;;;;5093248;28;20084;-78
2021/10/20 09:26:20;;;;;;;35.35;27.40;;;282.40;2278.40;;;;;;5093341;28;20035;-76
2021/10/20 09:28:46;;;;;;;38.00;27.80;;;282.30;2278.40;;;;;;5093289;28;20166;-75
2021/10/20 09:31:12;;;;;;;33.10;27.45;;;282.40;2278.40;;;;;;5094757;28;20081;-79
2021/10/20 09:33:40;;;;;;;38.53;31.67;;;282.50;2278.40;;;;;;5093127;28;20180;-77
2021/10/20 09:36:14;;;;;;;36.13;29.27;;;282.50;2278.40;;;;;;5092809;28;20057;-79
2021/10/20 09:38:47;;;;;;;38.10;30.15;;;307.20;2304.00;;;;;;5092948;28;20395;-77
2021/10/20 09:41:13;;;;;;;37.38;27.90;;;307.40;2304.00;;;;;;5092631;28;20035;-77
2021/10/20 09:43:42;;;;;;;42.17;31.83;;;307.60;2304.00;;;;;;5094114;28;20032;-78
2021/10/20 09:46:08;;;;;;;43.30;32.92;;;307.80;2304.00;;;;;;5092736;28;20028;-76
2021/10/20 09:48:40;;;;;;;44.10;34.53;;;308.00;2304.00;;;;;;5092667;28;20039;-75
2021/10/20 09:51:13;;;;;;;42.45;29.08;;;308.00;2304.00;;;;;;5092940;28;20030;-77
2021/10/20 09:53:42;;;;;;;50.03;39.25;;;308.10;2304.00;;;;;;5092372;28;20028;-77
2021/10/20 09:56:27;;;;;;;40.72;30.83;;;332.80;2329.60;;;;;;5092336;28;20025;-77
2021/10/20 09:58:54;;;;;;;39.75;31.92;;;332.90;2329.60;;;;;;5089813;28;20061;-75
2021/10/20 10:01:22;;;;;;;36.85;30.42;;;333.00;2329.60;;;;;;5092789;28;20020;-79
2021/10/20 10:03:49;;;;;;;36.38;29.60;;;333.10;2329.60;;;;;;5091713;28;20036;-76
2021/10/20 10:06:15;;;;;;;42.05;30.65;;;333.20;2329.60;;;;;;5091380;28;20077;-76
2021/10/20 10:08:42;;;;;;;39.65;31.08;;;333.40;2329.60;;;;;;5090727;28;20122;-74
2021/10/20 10:11:08;;;;;;;40.22;31.48;;;333.40;2329.60;;;;;;5093209;28;20028;-76
2021/10/20 10:13:50;;;;;;;35.63;27.73;;;333.30;2329.60;;;;;;5091067;28;20036;-78
2021/10/20 10:16:20;;;;;;;41.50;33.78;;;333.20;2329.60;;;;;;5092533;28;20059;-75
2021/10/20 10:18:47;;;;;;;30.95;24.00;;;333.40;2329.60;;;;;;5091517;28;20388;-75
2021/10/20 10:21:29;;;;;;;29.33;24.65;;;333.60;2329.60;;;;;;5091111;28;20035;-77
2021/10/20 10:23:57;;;;;;;36.67;28.27;;;333.50;2329.60;;;;;;5091555;28;20545;-75
2021/10/20 10:26:24;;;;;;;34.88;26.90;;;333.70;2329.60;;;;;;5091071;28;20032;-74
2021/10/20 10:29:10;;;;;;;38.33;34.15;;;333.70;2329.60;;;;;;5090660;28;20021;-77
2021/10/20 10:31:41;;;;;;;37.15;29.55;;;358.40;2329.60;;;;;;5081315;28;20040;-77
2021/10/20 10:34:24;;;;;;;41.88;31.20;;;358.50;2329.60;;;;;;5091958;28;20468;-74
2021/10/20 10:36:51;;;;;;;;;;;358.50;2329.60;;;;;;5092476;28;20024;-76
2021/10/20 10:39:17;;;;;;;31.60;25.35;;;358.90;2329.60;;;;;;5091873;28;20003;-75
2021/10/20 10:41:46;;;;;;;32.63;29.00;;;359.00;2329.60;;;;;;5093127;28;20123;-74
2021/10/20 10:44:16;;;;;;;35.70;30.90;;;359.00;2329.60;;;;;;5092898;28;20028;-74
2021/10/20 10:46:51;;;;;;;30.75;25.02;;;359.10;2329.60;;;;;;5092368;28;20032;-75
2021/10/20 10:49:43;;;;;;;29.23;24.67;;;359.20;2329.60;;;;;;5091944;28;20116;-76
2021/10/20 10:52:33;;;;;;;39.23;29.03;;;359.20;2329.60;;;;;;5092809;28;20074;-75
2021/10/20 10:55:18;;;;;;;32.00;25.35;;;384.10;2329.60;;;;;;5092055;28;20031;-73
2021/10/20 10:57:49;;;;;;;56.58;41.10;;;384.40;2329.60;;;;;;5091740;28;20024;-75
2021/10/20 11:00:17;;;;;;;44.17;35.05;;;384.40;2329.60;;;;;;5093123;28;20468;-73
2021/10/20 11:02:55;;;;;;;32.15;25.77;;;384.50;2329.60;;;;;;5092971;28;20513;-76
2021/10/20 11:05:29;;;;;;;81.57;58.50;;;384.60;2329.60;;;;;;5091689;28;20463;-74
2021/10/20 11:08:12;;;;;;;161.40;97.75;;;384.60;2329.60;;;;;;5091913;28;20063;-75
2021/10/20 11:10:41;;;;;;;116.15;71.43;;;409.60;2355.20;;;;;;5091702;28;20024;-79
2021/10/20 11:13:07;;;;;;;54.67;37.42;;;410.00;2355.20;;;;;;5092002;28;20495;-75
2021/10/20 11:15:35;;;;;;;116.65;71.97;;;410.30;2355.20;;;;;;5093247;28;20028;-76
2021/10/20 11:18:02;;;;;;;56.72;40.58;;;435.30;2355.20;;;;;;5091557;28;20028;-76
2021/10/20 11:20:31;;;;;;;42.22;27.33;;;435.50;2355.20;;;;;;5095125;28;20021;-74
2021/10/20 11:23:04;;;;;;;36.38;28.48;;;435.60;2355.20;;;;;;5096349;28;20024;-74
2021/10/20 11:25:31;;;;;;;42.42;32.78;;;435.90;2355.20;;;;;;5096504;28;20541;-75
2021/10/20 11:27:58;;;;;;;38.90;29.92;;;461.00;2380.80;;;;;;5096313;28;20365;-76
2021/10/20 11:30:30;;;;;;;26.67;21.70;;;461.20;2380.80;;;;;;5095428;28;20055;-75
2021/10/20 11:32:57;;;;;;;;;;;461.50;2380.80;;;;;;5095381;28;20471;-75
2021/10/20 11:35:26;;;;;;;29.23;21.23;;;461.70;2380.80;;;;;;5094801;28;19920;-76
2021/10/20 11:37:52;;;;;;;29.45;21.67;;;486.50;2380.80;;;;;;5095183;28;20020;-76
2021/10/20 11:40:18;;;;;;;28.75;24.00;;;486.60;2380.80;;;;;;5094786;28;20460;-74
2021/10/20 11:42:44;;;;;;;27.50;22.88;;;486.60;2380.80;;;;;;5094969;28;20028;-78
2021/10/20 11:45:10;;;;;;;26.10;22.27;;;486.80;2380.80;;;;;;5094965;28;20081;-77
2021/10/20 11:47:40;;;;;;;27.73;20.75;;;487.10;2380.80;;;;;;5096261;28;20511;-74
2021/10/20 11:50:10;;;;;;;82.35;47.65;;;487.20;2380.80;;;;;;5095053;28;20048;-76
2021/10/20 11:52:36;;;;;;;68.38;39.38;;;487.20;2380.80;;;;;;5094565;28;20055;-75
2021/10/20 11:55:02;;;;;;;41.80;27.15;;;512.20;2380.80;;;;;;5094992;28;20035;-77
2021/10/20 11:57:28;;;;;;;39.97;31.60;;;512.10;2304.00;;;;;;5095068;28;20521;-77
2021/10/20 11:59:56;;;;;;;30.85;23.88;;;512.20;2278.40;;;;;;5096055;28;20048;-76